Flight Track Log - Related Links

Times and Time Zones

All times are in EDT time to prevent confusion due to time zone crossing. See the JZA7679 flight status page for this flight to view local times or setup timezone preferences in your user account.

Time Position Orientation Groundspeed Altitude Reporting Facility
EDT Latitude Longitude Course Direction KTS MPH feet Rate Location/Type
Tue 07:31:37 AM 42.3667 -71.0167 329° Northwest 147 169 700  Level KA90
Tue 07:32:01 AM 42.3833 -71.0333 324° Northwest 164 189 2,300 3,357 Climbing KA90
Tue 07:33:01 AM 42.4167 -71.0833 312° West 206 237 5,400 1,900 Climbing KA90
Tue 07:34:01 AM 42.4833 -71.1333 331° Northwest 292 336 6,100 1,900 Climbing KA90
Tue 07:35:01 AM 42.5500 -71.1667 340° North 281 323 9,200 2,910 Climbing KA90
Tue 07:36:00 AM 42.8394 -71.4044 329° Northwest  Level Estimated
Tue 07:36:15 AM 42.6389 -71.2097 340° North 274 315 12,600  Level Boston Center
Tue 07:37:16 AM 42.7075 -71.2772 324° Northwest 285 328 15,100 2,244 Climbing Boston Center
Tue 07:38:18 AM 42.7708 -71.3467 321° Northwest 288 331 17,200 1,902 Climbing Boston Center
Tue 07:39:19 AM 42.8322 -71.4133 321° Northwest 301 346 19,000 1,672 Climbing Boston Center
Tue 07:40:20 AM 42.8956 -71.4836 321° Northwest 309 356 20,600 1,574 Climbing Boston Center
Tue 07:41:21 AM 42.9689 -71.5633 322° Northwest 316 364 22,200 1,279 Climbing Boston Center
Tue 07:42:22 AM 43.0406 -71.6422 321° Northwest 326 375 23,200 1,426 Climbing Boston Center
Tue 07:43:23 AM 43.1156 -71.7239 322° Northwest 337 388 25,100 1,512 Climbing Boston Center
Tue 07:44:25 AM 43.1889 -71.8036 322° Northwest 338 389 26,300 1,171 Climbing Boston Center
Tue 07:45:26 AM 43.2789 -71.9044 321° Northwest 347 399 27,500 836 Climbing Boston Center
Tue 07:46:27 AM 43.3544 -71.9900 321° Northwest 350 403 28,000 246 Climbing Boston Center
Tue 07:47:28 AM 43.4364 -72.0819 321° Northwest 376 433 28,000  Level Boston Center
Tue 07:48:30 AM 43.5225 -72.1794 321° Northwest 396 456 28,000  Level Boston Center
Tue 07:49:31 AM 43.6119 -72.2792 321° Northwest 409 471 28,000  Level Boston Center
Tue 07:50:32 AM 43.7022 -72.3811 321° Northwest 415 478 28,000  Level Boston Center
Tue 07:51:33 AM 43.7931 -72.4850 320° Northwest 422 486 28,000  Level Boston Center
Tue 07:52:34 AM 43.8844 -72.5897 320° Northwest 423 487 28,000  Level Boston Center
Tue 07:53:36 AM 43.9708 -72.6881 321° Northwest 424 488 28,000  Level Boston Center
Tue 07:54:37 AM 44.0814 -72.8142 321° Northwest 425 489 28,000  Level Boston Center
Tue 07:55:38 AM 44.1722 -72.9211 320° Northwest 426 490 28,000  Level Boston Center
Tue 07:56:39 AM 44.2647 -73.0269 321° Northwest 426 490 28,000  Level Boston Center
Tue 07:57:41 AM 44.3553 -73.1339 320° Northwest 426 490 28,000  Level Boston Center
Tue 07:58:42 AM 44.4472 -73.2411 320° Northwest 426 490 28,000  Level Boston Center
Tue 07:59:43 AM 44.5389 -73.3494 320° Northwest 426 490 28,000 -344 Level Boston Center
Tue 08:00:44 AM 44.6306 -73.4564 320° Northwest 426 490 27,300 -2,410 Descending Boston Center
Tue 08:01:45 AM 44.7328 -73.5269 334° Northwest 423 487 23,100 -4,000 Descending Boston Center
Tue 08:02:47 AM 44.8475 -73.5400 355° North 416 479 19,100 -4,154 Descending Boston Center
Tue 08:03:42 AM 44.9500 -73.5333 North 390 449 15,000 -3,809 Descending Montreal Center
Tue 08:04:42 AM 45.0500 -73.5500 353° North 360 414 11,800 -2,000 Descending Montreal Center
Tue 08:05:42 AM 45.1333 -73.5667 352° North 300 345 11,000 -800 Descending Montreal Center
Tue 08:06:42 AM 45.2167 -73.5667 360° North 280 322 10,200 -1,050 Descending Montreal Center
Tue 08:07:42 AM 45.2833 -73.5833 350° North 280 322 8,900 -1,400 Descending Montreal Center
Tue 08:08:42 AM 45.3667 -73.5833 360° North 280 322 7,400 -1,500 Descending Montreal Center
Tue 08:09:42 AM 45.4333 -73.5333 28° Northeast 270 311 5,900 -1,200 Descending Montreal Center
Tue 08:10:42 AM 45.5000 -73.4833 28° Northeast 260 299 5,000 -450 Descending Montreal Center
Tue 08:11:42 AM 45.5667 -73.4500 19° North 260 299 5,000  Level Montreal Center
Tue 08:12:42 AM 45.6333 -73.4833 341° North 250 288 5,000 -350 Level Montreal Center
Tue 08:13:42 AM 45.6167 -73.5500 250° West 240 276 4,300 -1,050 Descending Montreal Center
Tue 08:14:42 AM 45.5667 -73.6000 215° Southwest 220 253 2,900 -1,250 Descending Montreal Center
Tue 08:15:42 AM 45.5333 -73.6500 226° Southwest 170 196 1,800 -1,000 Descending Montreal Center
Tue 08:16:42 AM 45.5000 -73.7000 226° Southwest 150 173 900 -850 Descending Montreal Center
Tue 08:17:42 AM 45.4667 -73.7167 199° South 130 150 100 -400 Descending Montreal Center
Tue 08:18:42 AM 45.4500 -73.7500 235° Southwest 30 35 100  Level Montreal Center

Login

Don't have an account? Register now (free) for customized features, flight alerts, and more!